createdAt,value
2022-09-18T00:09:34.180Z,10.00
2022-09-18T00:29:34.146Z,9.98
2022-09-18T00:49:34.122Z,9.90
2022-09-18T01:09:34.127Z,10.01
2022-09-18T01:29:34.100Z,10.10
2022-09-18T01:49:34.136Z,10.15
2022-09-18T02:09:34.050Z,10.25
2022-09-18T02:29:34.038Z,10.40
2022-09-18T02:49:34.003Z,10.46
2022-09-18T03:09:33.992Z,10.37
2022-09-18T03:29:34.019Z,10.41
2022-09-18T03:49:33.947Z,10.41
2022-09-18T04:09:33.917Z,10.41
2022-09-18T04:29:33.909Z,10.51
2022-09-18T04:49:33.886Z,10.59
2022-09-18T05:09:33.870Z,10.53
2022-09-18T05:29:33.841Z,10.56
2022-09-18T05:49:33.824Z,10.60
2022-09-18T06:09:33.819Z,10.73
2022-09-18T06:29:33.783Z,10.93
2022-09-18T06:49:33.758Z,11.00
2022-09-18T07:09:33.729Z,11.07
2022-09-18T07:29:33.720Z,11.08
2022-09-18T07:49:33.685Z,11.11
2022-09-18T08:09:33.676Z,11.21
2022-09-18T08:29:33.662Z,11.32
2022-09-18T08:49:33.666Z,11.34
2022-09-18T09:09:33.604Z,11.44
2022-09-18T09:29:33.579Z,11.67
2022-09-18T09:49:33.561Z,11.80
2022-09-18T10:09:33.545Z,12.06
2022-09-18T10:29:33.521Z,12.21
2022-09-18T10:49:33.489Z,12.14
2022-09-18T11:09:33.469Z,12.11
2022-09-18T11:29:33.472Z,12.05
2022-09-18T11:49:33.427Z,12.24
2022-09-18T12:09:32.056Z,12.38
2022-09-18T12:29:32.013Z,12.67
2022-09-18T12:49:32.642Z,12.68
2022-09-18T13:09:32.617Z,12.84
2022-09-18T13:29:33.323Z,12.96
2022-09-18T13:49:33.300Z,13.29
2022-09-18T14:09:33.219Z,13.31
2022-09-18T14:29:33.204Z,13.19
2022-09-18T14:49:33.188Z,13.21
2022-09-18T15:09:33.178Z,13.13
2022-09-18T15:29:33.157Z,13.03
2022-09-18T15:49:33.151Z,12.89
2022-09-18T16:09:33.116Z,12.77
2022-09-18T16:29:33.086Z,12.74
2022-09-18T16:49:33.084Z,12.70
2022-09-18T17:09:33.060Z,12.67
2022-09-18T17:29:33.056Z,12.67
2022-09-18T17:49:33.029Z,12.51
2022-09-18T18:09:32.983Z,12.48
2022-09-18T18:29:32.958Z,12.32
2022-09-18T18:49:32.944Z,12.38
2022-09-18T19:09:32.905Z,12.33
2022-09-18T19:29:32.903Z,12.27
2022-09-18T19:49:32.863Z,12.29
2022-09-18T20:09:32.829Z,12.28
2022-09-18T20:29:32.832Z,12.28
2022-09-18T20:49:32.787Z,12.26
2022-09-18T21:09:32.818Z,12.32
2022-09-18T21:29:32.756Z,12.12
2022-09-18T21:49:32.727Z,12.02
2022-09-18T22:09:32.708Z,12.14
2022-09-18T22:29:32.691Z,11.91
2022-09-18T22:49:32.666Z,11.82
2022-09-18T23:09:32.694Z,11.67
2022-09-18T23:29:32.622Z,11.62
2022-09-18T23:49:32.598Z,11.22
